createdAt,value
2017-08-02T00:00:25.340Z,16.10
2017-08-02T00:02:52.904Z,16.10
2017-08-02T00:05:20.508Z,16.20
2017-08-02T00:07:48.844Z,16.20
2017-08-02T00:10:16.413Z,16.10
2017-08-02T00:12:44.000Z,16.10
2017-08-02T00:15:12.333Z,15.90
2017-08-02T00:17:39.987Z,15.90
2017-08-02T00:20:08.269Z,15.90
2017-08-02T00:22:36.648Z,15.80
2017-08-02T00:25:04.303Z,15.80
2017-08-02T00:27:31.893Z,15.80
2017-08-02T00:29:59.460Z,15.80
2017-08-02T00:32:27.026Z,15.70
2017-08-02T00:34:54.612Z,15.70
2017-08-02T00:37:22.184Z,15.70
2017-08-02T00:39:49.753Z,15.60
2017-08-02T00:42:17.344Z,15.60
2017-08-02T00:44:44.908Z,15.50
2017-08-02T00:47:12.487Z,15.40
2017-08-02T00:49:41.064Z,15.30
2017-08-02T00:52:08.629Z,15.30
2017-08-02T00:54:36.961Z,15.20
2017-08-02T00:57:04.557Z,15.20
2017-08-02T00:59:32.136Z,15.20
2017-08-02T01:02:00.469Z,15.10
2017-08-02T01:04:28.060Z,15.10
2017-08-02T01:06:55.628Z,15.00
2017-08-02T01:09:23.965Z,15.00
2017-08-02T01:11:51.570Z,15.00
2017-08-02T01:14:19.157Z,15.00
2017-08-02T01:16:46.720Z,14.90
2017-08-02T01:19:14.316Z,14.90
2017-08-02T01:21:41.884Z,14.90
2017-08-02T01:24:09.444Z,14.80
2017-08-02T01:26:37.071Z,14.80
2017-08-02T01:29:04.636Z,14.80
2017-08-02T01:31:32.200Z,14.70
2017-08-02T01:33:59.800Z,14.70
2017-08-02T01:36:28.132Z,14.60
2017-08-02T01:38:55.789Z,14.60
2017-08-02T01:41:23.384Z,14.60
2017-08-02T01:43:51.011Z,14.60
2017-08-02T01:46:18.577Z,14.60
2017-08-02T01:48:46.168Z,14.60
2017-08-02T01:51:13.737Z,14.60
2017-08-02T01:53:42.068Z,14.60
2017-08-02T01:56:09.729Z,14.50
2017-08-02T01:58:37.297Z,14.60
2017-08-02T02:01:04.860Z,14.60
2017-08-02T02:03:32.456Z,14.60
2017-08-02T02:06:00.886Z,14.60
2017-08-02T02:08:28.452Z,14.60
2017-08-02T02:10:56.060Z,14.60
2017-08-02T02:13:24.389Z,14.60
2017-08-02T02:15:51.960Z,14.60
2017-08-02T02:18:19.577Z,14.60
2017-08-02T02:20:47.140Z,14.50
2017-08-02T02:23:14.701Z,14.50
2017-08-02T02:25:42.301Z,14.50
2017-08-02T02:28:09.869Z,14.50
2017-08-02T02:30:37.433Z,14.50
2017-08-02T02:33:05.028Z,14.50
2017-08-02T02:35:32.594Z,14.50
2017-08-02T02:38:00.160Z,14.60
2017-08-02T02:40:27.752Z,14.50
2017-08-02T02:42:55.320Z,14.50
2017-08-02T02:45:22.866Z,14.60
2017-08-02T02:47:50.428Z,14.50
2017-08-02T02:50:17.974Z,14.50
2017-08-02T02:52:45.522Z,14.50
2017-08-02T02:55:13.076Z,14.60
2017-08-02T02:57:40.652Z,14.60
2017-08-02T03:00:08.188Z,14.60
2017-08-02T03:02:35.769Z,14.60
2017-08-02T03:05:03.337Z,14.60
2017-08-02T03:07:30.876Z,14.60
2017-08-02T03:09:58.462Z,14.60
2017-08-02T03:12:26.014Z,14.60
2017-08-02T03:14:53.570Z,14.70
2017-08-02T03:17:21.160Z,14.70
2017-08-02T03:19:48.709Z,14.70
2017-08-02T03:22:16.269Z,14.70
2017-08-02T03:24:43.845Z,14.70
2017-08-02T03:27:11.394Z,14.80
2017-08-02T03:29:38.923Z,14.80
2017-08-02T03:32:06.614Z,14.80
2017-08-02T03:34:34.180Z,14.90
2017-08-02T03:37:01.803Z,14.90
2017-08-02T03:39:29.381Z,14.90
2017-08-02T03:41:57.026Z,14.90
2017-08-02T03:44:24.584Z,14.90
2017-08-02T03:46:52.180Z,14.90
2017-08-02T03:49:19.727Z,14.90
2017-08-02T03:51:47.275Z,14.90
2017-08-02T03:54:14.873Z,14.90
2017-08-02T03:56:43.204Z,14.90
2017-08-02T03:59:10.777Z,14.90
2017-08-02T04:01:38.362Z,14.90
2017-08-02T04:04:05.896Z,15.00
2017-08-02T04:06:33.435Z,14.90
2017-08-02T04:09:00.988Z,15.00
2017-08-02T04:11:28.553Z,15.00
2017-08-02T04:13:56.103Z,15.00
2017-08-02T04:16:23.647Z,15.00
2017-08-02T04:18:51.212Z,15.00
2017-08-02T04:21:18.796Z,15.00
2017-08-02T04:23:46.328Z,15.10
2017-08-02T04:26:13.894Z,15.10
2017-08-02T04:28:41.492Z,15.10
2017-08-02T04:31:09.042Z,15.10
2017-08-02T04:33:36.604Z,15.20
2017-08-02T04:36:04.178Z,15.20
2017-08-02T04:38:31.708Z,15.20
2017-08-02T04:40:59.268Z,15.30
2017-08-02T04:43:26.847Z,15.30
2017-08-02T04:45:54.420Z,15.40
2017-08-02T04:48:21.965Z,15.30
2017-08-02T04:50:49.538Z,15.30
2017-08-02T04:53:17.164Z,15.30
2017-08-02T04:55:44.700Z,15.30
2017-08-02T04:58:12.347Z,15.40
2017-08-02T05:00:40.677Z,15.60
2017-08-02T05:03:08.217Z,15.60
2017-08-02T05:05:35.804Z,15.70
2017-08-02T05:08:03.354Z,15.80
2017-08-02T05:10:30.912Z,15.90
2017-08-02T05:12:58.508Z,16.00
2017-08-02T05:15:26.822Z,16.30
2017-08-02T05:17:54.356Z,16.30
2017-08-02T05:20:22.718Z,16.50
2017-08-02T05:22:51.052Z,16.60
2017-08-02T05:25:18.584Z,16.60
2017-08-02T05:27:46.139Z,16.70
2017-08-02T05:30:13.750Z,16.80
2017-08-02T05:32:41.308Z,16.80
2017-08-02T05:35:08.904Z,17.00
2017-08-02T05:37:37.226Z,17.20
2017-08-02T05:40:04.784Z,17.20
2017-08-02T05:42:32.389Z,17.40
2017-08-02T05:45:01.848Z,17.70
2017-08-02T05:47:30.307Z,17.90
2017-08-02T05:49:57.896Z,17.90
2017-08-02T05:52:25.428Z,18.00
2017-08-02T05:54:52.988Z,18.20
2017-08-02T05:57:20.555Z,18.40
2017-08-02T05:59:48.102Z,18.50
2017-08-02T06:02:15.652Z,18.50
2017-08-02T06:04:43.226Z,18.50
2017-08-02T06:07:10.779Z,18.60
2017-08-02T06:09:38.312Z,18.70
2017-08-02T06:12:06.668Z,19.00
2017-08-02T06:14:34.222Z,19.00
2017-08-02T06:17:01.766Z,19.20
2017-08-02T06:19:29.362Z,19.50
2017-08-02T06:21:56.910Z,19.80
2017-08-02T06:24:24.473Z,20.20
2017-08-02T06:26:52.034Z,20.50
2017-08-02T06:29:19.568Z,20.80
2017-08-02T06:31:47.213Z,20.80
2017-08-02T06:34:14.783Z,20.70
2017-08-02T06:36:42.437Z,20.60
2017-08-02T06:39:09.967Z,20.50
2017-08-02T06:41:37.539Z,20.50
2017-08-02T06:44:05.112Z,20.60
2017-08-02T06:46:32.662Z,20.70
2017-08-02T06:49:00.242Z,20.90
2017-08-02T06:51:27.790Z,21.00
2017-08-02T06:53:55.335Z,21.10
2017-08-02T06:56:22.895Z,21.30
2017-08-02T06:58:50.424Z,21.60
2017-08-02T07:01:18.739Z,22.10
2017-08-02T07:03:46.310Z,22.10
2017-08-02T07:06:13.844Z,22.20
2017-08-02T07:08:41.408Z,22.10
2017-08-02T07:11:08.982Z,22.10
2017-08-02T07:13:36.546Z,22.00
2017-08-02T07:16:04.080Z,21.70
2017-08-02T07:18:31.662Z,21.50
2017-08-02T07:20:59.215Z,21.30
2017-08-02T07:23:26.764Z,21.20
2017-08-02T07:25:54.344Z,21.10
2017-08-02T07:28:21.904Z,21.20
2017-08-02T07:30:49.453Z,21.10
2017-08-02T07:33:17.009Z,21.30
2017-08-02T07:35:44.568Z,21.50
2017-08-02T07:38:12.100Z,21.70
2017-08-02T07:40:39.676Z,21.90
2017-08-02T07:43:07.226Z,22.10
2017-08-02T07:45:34.792Z,22.20
2017-08-02T07:48:02.470Z,22.30
2017-08-02T07:50:30.022Z,22.50
2017-08-02T07:52:57.582Z,22.80
2017-08-02T07:55:25.162Z,23.20
2017-08-02T07:57:52.692Z,23.70
2017-08-02T08:00:20.242Z,24.20
2017-08-02T08:02:47.814Z,24.80
2017-08-02T08:05:15.364Z,25.20
2017-08-02T08:07:42.918Z,25.60
2017-08-02T08:10:10.499Z,25.80
2017-08-02T08:12:38.051Z,26.00
2017-08-02T08:15:05.588Z,25.90
2017-08-02T08:17:33.177Z,26.00
2017-08-02T08:20:00.843Z,26.10
2017-08-02T08:22:28.414Z,26.10
2017-08-02T08:24:56.061Z,26.10
2017-08-02T08:27:23.606Z,26.30
2017-08-02T08:29:51.163Z,26.50
2017-08-02T08:32:18.727Z,26.90
2017-08-02T08:34:46.267Z,27.30
2017-08-02T08:37:13.802Z,27.30
2017-08-02T08:39:41.364Z,27.20
2017-08-02T08:42:09.665Z,27.60
2017-08-02T08:44:37.199Z,27.60
2017-08-02T08:47:04.768Z,27.70
2017-08-02T08:49:33.105Z,27.70
2017-08-02T08:52:00.690Z,27.70
2017-08-02T08:54:28.242Z,27.60
2017-08-02T08:56:55.775Z,27.60
2017-08-02T08:59:23.350Z,28.10
2017-08-02T09:01:50.880Z,28.40
2017-08-02T09:04:18.471Z,28.40
2017-08-02T09:06:46.038Z,28.30
2017-08-02T09:09:13.586Z,27.90
2017-08-02T09:11:41.122Z,27.10
2017-08-02T09:14:08.690Z,26.80
2017-08-02T09:16:36.231Z,26.70
2017-08-02T09:19:03.766Z,26.40
2017-08-02T09:21:32.116Z,25.60
2017-08-02T09:23:59.662Z,25.60
2017-08-02T09:26:27.202Z,25.60
2017-08-02T09:28:54.784Z,25.60
2017-08-02T09:31:22.340Z,25.80
2017-08-02T09:33:49.872Z,25.60
2017-08-02T09:36:17.434Z,25.90
2017-08-02T09:38:44.987Z,26.20
2017-08-02T09:41:12.522Z,26.50
2017-08-02T09:43:40.102Z,26.50
2017-08-02T09:46:07.625Z,26.60
2017-08-02T09:48:35.953Z,26.90
2017-08-02T09:51:03.527Z,26.90
2017-08-02T09:53:31.070Z,27.00
2017-08-02T09:55:58.625Z,27.60
2017-08-02T09:58:26.194Z,28.10
2017-08-02T10:00:53.752Z,28.10
2017-08-02T10:03:21.280Z,28.10
2017-08-02T10:05:48.869Z,28.20
2017-08-02T10:08:16.415Z,28.40
2017-08-02T10:10:43.940Z,29.90
2017-08-02T10:13:12.256Z,30.40
2017-08-02T10:15:39.802Z,30.40
2017-08-02T10:18:07.356Z,30.30
2017-08-02T10:20:34.924Z,29.40
2017-08-02T10:23:02.448Z,29.20
2017-08-02T10:25:30.755Z,28.70
2017-08-02T10:27:58.324Z,28.70
2017-08-02T10:30:25.870Z,28.80
2017-08-02T10:32:53.428Z,28.40
2017-08-02T10:35:20.999Z,27.70
2017-08-02T10:37:48.521Z,27.90
2017-08-02T10:40:16.840Z,26.90
2017-08-02T10:42:44.393Z,26.90
2017-08-02T10:45:11.948Z,27.10
2017-08-02T10:47:39.494Z,27.30
2017-08-02T10:50:07.080Z,27.50
2017-08-02T10:52:34.622Z,27.70
2017-08-02T10:55:02.180Z,28.50
2017-08-02T10:57:29.740Z,29.50
2017-08-02T10:59:57.295Z,30.10
2017-08-02T11:02:24.839Z,30.40
2017-08-02T11:04:52.415Z,30.40
2017-08-02T11:07:19.948Z,31.20
2017-08-02T11:09:48.239Z,30.80
2017-08-02T11:12:15.803Z,30.80
2017-08-02T11:14:43.372Z,30.50
2017-08-02T11:17:10.939Z,31.20
2017-08-02T11:19:38.483Z,31.10
2017-08-02T11:22:06.039Z,31.50
2017-08-02T11:24:33.628Z,31.80
2017-08-02T11:27:01.156Z,32.00
2017-08-02T11:29:28.698Z,31.80
2017-08-02T11:31:57.056Z,31.60
2017-08-02T11:34:24.602Z,31.50
2017-08-02T11:36:52.146Z,32.10
2017-08-02T11:39:20.202Z,32.10
2017-08-02T11:41:47.760Z,32.00
2017-08-02T11:44:15.321Z,32.50
2017-08-02T11:46:42.890Z,32.50
2017-08-02T11:49:10.426Z,32.40
2017-08-02T11:51:37.960Z,31.60
2017-08-02T11:54:06.309Z,31.10
2017-08-02T11:56:33.873Z,31.10
2017-08-02T11:59:01.408Z,30.90
2017-08-02T12:01:28.974Z,32.30
2017-08-02T12:03:56.613Z,32.40
2017-08-02T12:06:24.186Z,32.10
2017-08-02T12:08:51.720Z,30.70
2017-08-02T12:11:19.260Z,30.10
2017-08-02T12:13:47.597Z,30.30
2017-08-02T12:16:15.232Z,30.30
2017-08-02T12:18:42.818Z,30.20
2017-08-02T12:21:10.352Z,31.10
2017-08-02T12:23:37.918Z,30.20
2017-08-02T12:26:05.473Z,29.70
2017-08-02T12:28:33.031Z,29.30
2017-08-02T12:31:00.590Z,28.90
2017-08-02T12:33:28.144Z,29.10
2017-08-02T12:35:55.698Z,28.90
2017-08-02T12:38:23.228Z,28.90
2017-08-02T12:40:51.712Z,28.00
2017-08-02T12:43:19.283Z,28.00
2017-08-02T12:45:46.833Z,28.10
2017-08-02T12:48:14.409Z,27.90
2017-08-02T12:50:41.956Z,27.80
2017-08-02T12:53:09.516Z,27.20
2017-08-02T12:55:37.086Z,27.40
2017-08-02T12:58:04.645Z,27.50
2017-08-02T13:00:32.172Z,28.10
2017-08-02T13:03:00.511Z,28.80
2017-08-02T13:05:28.040Z,28.80
2017-08-02T13:07:55.586Z,28.90
2017-08-02T13:10:23.557Z,28.60
2017-08-02T13:12:51.099Z,28.60
2017-08-02T13:15:18.677Z,28.60
2017-08-02T13:17:46.268Z,28.70
2017-08-02T13:20:13.803Z,29.20
2017-08-02T13:22:41.342Z,29.90
2017-08-02T13:25:08.918Z,29.80
2017-08-02T13:27:36.470Z,30.00
2017-08-02T13:30:04.032Z,30.40
2017-08-02T13:32:31.615Z,30.80
2017-08-02T13:34:59.166Z,31.10
2017-08-02T13:37:26.728Z,31.30
2017-08-02T13:39:54.265Z,31.20
2017-08-02T13:42:21.792Z,31.40
2017-08-02T13:44:50.205Z,31.00
2017-08-02T13:47:17.746Z,31.00
2017-08-02T13:49:45.314Z,30.80
2017-08-02T13:52:12.863Z,30.60
2017-08-02T13:54:40.402Z,31.00
2017-08-02T13:57:08.734Z,31.80
2017-08-02T13:59:36.288Z,31.80
2017-08-02T14:02:03.872Z,31.40
2017-08-02T14:04:31.410Z,30.80
2017-08-02T14:06:58.950Z,30.30
2017-08-02T14:09:26.519Z,30.00
2017-08-02T14:11:54.066Z,30.50
2017-08-02T14:14:21.627Z,31.60
2017-08-02T14:16:49.189Z,32.40
2017-08-02T14:19:16.735Z,31.90
2017-08-02T14:21:44.314Z,31.40
2017-08-02T14:24:11.854Z,30.30
2017-08-02T14:26:39.408Z,30.00
2017-08-02T14:29:06.989Z,29.90
2017-08-02T14:31:34.523Z,30.00
2017-08-02T14:34:02.062Z,30.10
2017-08-02T14:36:30.398Z,29.50
2017-08-02T14:38:57.939Z,29.50
2017-08-02T14:41:25.481Z,28.90
2017-08-02T14:43:53.036Z,28.10
2017-08-02T14:46:20.602Z,27.80
2017-08-02T14:48:48.184Z,27.40
2017-08-02T14:51:15.754Z,27.40
2017-08-02T14:53:43.284Z,27.20
2017-08-02T14:56:10.838Z,27.00
2017-08-02T14:58:38.396Z,26.70
2017-08-02T15:01:06.792Z,26.60
2017-08-02T15:03:34.353Z,26.50
2017-08-02T15:06:01.956Z,26.40
2017-08-02T15:08:29.497Z,26.40
2017-08-02T15:10:57.060Z,26.50
2017-08-02T15:13:24.644Z,26.60
2017-08-02T15:15:52.973Z,26.50
2017-08-02T15:18:20.518Z,26.50
2017-08-02T15:20:48.090Z,26.40
2017-08-02T15:23:15.646Z,26.30
2017-08-02T15:25:43.195Z,26.10
2017-08-02T15:28:10.771Z,25.90
2017-08-02T15:30:38.300Z,25.80
2017-08-02T15:33:05.848Z,25.60
2017-08-02T15:35:34.186Z,25.40
2017-08-02T15:38:01.730Z,25.30
2017-08-02T15:40:29.274Z,25.30
2017-08-02T15:42:56.850Z,25.10
2017-08-02T15:45:24.394Z,25.10
2017-08-02T15:47:51.920Z,25.00
2017-08-02T15:50:20.269Z,24.80
2017-08-02T15:52:47.804Z,24.70
2017-08-02T15:55:15.337Z,24.60
2017-08-02T15:57:42.903Z,24.50
2017-08-02T16:00:10.442Z,24.50
2017-08-02T16:02:38.027Z,24.40
2017-08-02T16:05:05.590Z,24.40
2017-08-02T16:07:33.136Z,24.40
2017-08-02T16:10:00.660Z,24.40
2017-08-02T16:12:28.988Z,24.50
2017-08-02T16:14:56.549Z,24.40
2017-08-02T16:17:24.094Z,24.40
2017-08-02T16:19:51.676Z,24.40
2017-08-02T16:22:19.218Z,24.40
2017-08-02T16:24:46.747Z,24.30
2017-08-02T16:27:14.306Z,24.20
2017-08-02T16:29:41.847Z,24.10
2017-08-02T16:32:10.170Z,23.90
2017-08-02T16:34:37.734Z,23.90
2017-08-02T16:37:05.393Z,23.80
2017-08-02T16:39:32.933Z,23.80
2017-08-02T16:42:00.495Z,23.70
2017-08-02T16:44:28.034Z,23.50
2017-08-02T16:46:56.343Z,23.30
2017-08-02T16:49:23.910Z,23.30
2017-08-02T16:51:51.467Z,23.30
2017-08-02T16:54:19.009Z,23.20
2017-08-02T16:56:46.601Z,23.10
2017-08-02T16:59:14.154Z,23.10
2017-08-02T17:01:42.579Z,22.90
2017-08-02T17:04:10.154Z,22.80
2017-08-02T17:06:37.695Z,22.80
2017-08-02T17:09:05.335Z,22.70
2017-08-02T17:11:33.737Z,22.70
2017-08-02T17:14:02.094Z,22.70
2017-08-02T17:16:29.694Z,22.70
2017-08-02T17:18:57.272Z,22.60
2017-08-02T17:21:24.893Z,22.60
2017-08-02T17:23:52.448Z,22.60
2017-08-02T17:26:20.796Z,22.60
2017-08-02T17:28:48.324Z,22.60
2017-08-02T17:31:15.870Z,22.60
2017-08-02T17:33:43.965Z,22.60
2017-08-02T17:36:13.470Z,22.60
2017-08-02T17:38:41.036Z,22.60
2017-08-02T17:41:08.625Z,22.70
2017-08-02T17:43:36.174Z,22.70
2017-08-02T17:46:03.810Z,22.80
2017-08-02T17:48:31.378Z,22.80
2017-08-02T17:50:58.918Z,22.80
2017-08-02T17:53:26.461Z,22.90
2017-08-02T17:55:54.038Z,22.80
2017-08-02T17:58:21.592Z,22.80
2017-08-02T18:00:49.139Z,22.70
2017-08-02T18:03:16.695Z,22.60
2017-08-02T18:05:44.224Z,22.60
2017-08-02T18:08:12.563Z,22.40
2017-08-02T18:10:40.110Z,22.40
2017-08-02T18:13:07.786Z,22.30
2017-08-02T18:15:35.393Z,22.20
2017-08-02T18:18:03.806Z,22.10
2017-08-02T18:20:31.336Z,22.10
2017-08-02T18:22:58.946Z,22.10
2017-08-02T18:25:26.476Z,22.00
2017-08-02T18:27:54.056Z,22.00
2017-08-02T18:30:21.585Z,21.90
2017-08-02T18:32:49.162Z,21.80
2017-08-02T18:35:16.736Z,21.70
2017-08-02T18:37:44.274Z,21.70
2017-08-02T18:40:11.840Z,21.70
2017-08-02T18:42:40.151Z,21.60
2017-08-02T18:45:07.712Z,21.60
2017-08-02T18:47:35.301Z,21.60
2017-08-02T18:50:02.851Z,21.50
2017-08-02T18:52:31.152Z,21.40
2017-08-02T18:54:58.840Z,21.40
2017-08-02T18:57:26.375Z,21.30
2017-08-02T18:59:53.929Z,21.30
2017-08-02T19:02:21.510Z,21.20
2017-08-02T19:04:49.048Z,21.10
2017-08-02T19:07:16.593Z,21.10
2017-08-02T19:09:44.932Z,20.90
2017-08-02T19:12:12.467Z,20.90
2017-08-02T19:14:40.012Z,20.90
2017-08-02T19:17:07.564Z,20.90
2017-08-02T19:19:35.110Z,20.80
2017-08-02T19:22:03.442Z,20.70
2017-08-02T19:24:31.011Z,20.70
2017-08-02T19:26:58.554Z,20.70
2017-08-02T19:29:26.095Z,20.50
2017-08-02T19:31:53.757Z,20.50
2017-08-02T19:34:21.315Z,20.40
2017-08-02T19:36:48.874Z,20.40
2017-08-02T19:39:16.428Z,20.40
2017-08-02T19:41:43.994Z,20.30
2017-08-02T19:44:11.538Z,20.30
2017-08-02T19:46:39.110Z,20.20
2017-08-02T19:49:06.680Z,20.20
2017-08-02T19:51:34.226Z,20.20
2017-08-02T19:54:01.812Z,20.10
2017-08-02T19:56:29.354Z,20.00
2017-08-02T19:58:56.941Z,20.00
2017-08-02T20:01:24.516Z,19.90
2017-08-02T20:03:52.835Z,19.70
2017-08-02T20:06:20.390Z,19.70
2017-08-02T20:08:47.958Z,19.60
2017-08-02T20:11:15.530Z,19.60
2017-08-02T20:13:43.111Z,19.50
2017-08-02T20:16:10.670Z,19.50
2017-08-02T20:18:38.234Z,19.40
2017-08-02T20:21:05.833Z,19.40
2017-08-02T20:23:33.400Z,19.30
2017-08-02T20:26:00.950Z,19.30
2017-08-02T20:28:28.504Z,19.30
2017-08-02T20:30:56.818Z,19.20
2017-08-02T20:33:24.418Z,19.20
2017-08-02T20:35:51.966Z,19.20
2017-08-02T20:38:19.528Z,19.20
2017-08-02T20:40:47.091Z,19.20
2017-08-02T20:43:14.652Z,19.20
2017-08-02T20:45:42.184Z,19.10
2017-08-02T20:48:09.937Z,19.10
2017-08-02T20:50:37.504Z,19.10
2017-08-02T20:53:05.088Z,19.00
2017-08-02T20:55:32.636Z,19.00
2017-08-02T20:58:00.255Z,18.90
2017-08-02T21:00:27.872Z,18.90
2017-08-02T21:02:55.421Z,18.90
2017-08-02T21:05:23.054Z,18.80
2017-08-02T21:07:50.612Z,18.80
2017-08-02T21:10:18.173Z,18.80
2017-08-02T21:12:45.736Z,18.70
2017-08-02T21:15:13.332Z,18.70
2017-08-02T21:17:40.878Z,18.60
2017-08-02T21:20:08.433Z,18.60
2017-08-02T21:22:36.026Z,18.60
2017-08-02T21:25:04.336Z,18.60
2017-08-02T21:27:31.903Z,18.60
2017-08-02T21:29:59.447Z,18.60
2017-08-02T21:32:27.014Z,18.60
2017-08-02T21:34:54.564Z,18.60
2017-08-02T21:37:22.138Z,18.60
2017-08-02T21:39:49.708Z,18.60
2017-08-02T21:42:17.258Z,18.40
2017-08-02T21:44:44.822Z,18.40
2017-08-02T21:47:12.370Z,18.40
2017-08-02T21:49:39.942Z,18.40
2017-08-02T21:52:07.500Z,18.40
2017-08-02T21:54:35.052Z,18.50
2017-08-02T21:57:02.629Z,18.60
2017-08-02T21:59:30.175Z,18.60
2017-08-02T22:01:57.704Z,18.60
2017-08-02T22:04:26.044Z,18.40
2017-08-02T22:06:53.616Z,18.40
2017-08-02T22:09:21.156Z,18.40
2017-08-02T22:11:48.735Z,18.40
2017-08-02T22:14:16.301Z,18.40
2017-08-02T22:16:44.604Z,18.40
2017-08-02T22:19:12.174Z,18.40
2017-08-02T22:21:39.722Z,18.40
2017-08-02T22:24:07.255Z,18.40
2017-08-02T22:26:34.808Z,18.40
2017-08-02T22:29:02.340Z,18.30
2017-08-02T22:31:29.902Z,18.30
2017-08-02T22:33:57.486Z,18.30
2017-08-02T22:36:25.029Z,18.30
2017-08-02T22:38:52.602Z,18.20
2017-08-02T22:41:20.168Z,18.20
2017-08-02T22:43:48.469Z,18.20
2017-08-02T22:46:16.033Z,18.10
2017-08-02T22:48:43.578Z,18.20
2017-08-02T22:51:11.890Z,18.20
2017-08-02T22:53:39.452Z,18.10
2017-08-02T22:56:06.998Z,18.10
2017-08-02T22:58:34.568Z,18.10
2017-08-02T23:01:02.146Z,18.00
2017-08-02T23:03:29.708Z,18.00
2017-08-02T23:05:57.254Z,18.00
2017-08-02T23:08:24.829Z,18.00
2017-08-02T23:10:52.374Z,17.90
2017-08-02T23:13:19.921Z,17.90
2017-08-02T23:15:47.495Z,17.90
2017-08-02T23:18:15.057Z,17.90
2017-08-02T23:20:42.615Z,17.90
2017-08-02T23:23:10.175Z,17.90
2017-08-02T23:25:37.722Z,17.90
2017-08-02T23:28:05.280Z,17.90
2017-08-02T23:30:32.822Z,17.90
2017-08-02T23:33:00.356Z,17.90
2017-08-02T23:35:28.709Z,17.90
2017-08-02T23:37:56.244Z,17.80
2017-08-02T23:40:23.794Z,17.80
2017-08-02T23:42:51.370Z,17.80
2017-08-02T23:45:18.924Z,17.80
2017-08-02T23:47:46.483Z,17.80
2017-08-02T23:50:14.054Z,17.80
2017-08-02T23:52:41.608Z,17.80
2017-08-02T23:55:09.140Z,17.80
2017-08-02T23:57:36.725Z,17.80
